createdAt,value
2014-07-12T00:00:43.487Z,21.15
2014-07-12T00:01:48.176Z,21
2014-07-12T00:02:52.851Z,20.94
2014-07-12T00:03:57.541Z,20.96
2014-07-12T00:05:02.512Z,21.17
2014-07-12T00:06:07.202Z,21.08
2014-07-12T00:07:12.204Z,21.06
2014-07-12T00:08:16.879Z,21.15
2014-07-12T00:09:21.567Z,21.08
2014-07-12T00:10:26.241Z,20.96
2014-07-12T00:11:30.931Z,20.97
2014-07-12T00:12:35.917Z,21
2014-07-12T00:13:39.920Z,21.11
2014-07-12T00:14:44.594Z,21.11
2014-07-12T00:15:49.282Z,21.08
2014-07-12T00:16:54.270Z,21.26
2014-07-12T00:17:59.256Z,21.26
2014-07-12T00:19:03.946Z,20.92
2014-07-12T00:20:09.213Z,20.85
2014-07-12T00:21:14.200Z,20.66
2014-07-12T00:22:18.889Z,20.78
2014-07-12T00:23:23.875Z,20.66
2014-07-12T00:24:28.862Z,20.53
2014-07-12T00:25:33.551Z,20.6
2014-07-12T00:26:38.241Z,20.68
2014-07-12T00:27:42.915Z,20.76
2014-07-12T00:28:47.605Z,20.92
2014-07-12T00:29:52.887Z,20.7
2014-07-12T00:30:57.577Z,20.78
2014-07-12T00:32:02.266Z,20.81
2014-07-12T00:33:07.253Z,20.81
2014-07-12T00:34:12.224Z,20.98
2014-07-12T00:35:16.914Z,20.67
2014-07-12T00:36:21.603Z,20.56
2014-07-12T00:37:26.276Z,20.98
2014-07-12T00:38:30.994Z,20.84
2014-07-12T00:39:35.725Z,20.78
2014-07-12T00:40:40.438Z,20.77
2014-07-12T00:41:45.171Z,20.61
2014-07-12T00:42:50.196Z,20.72
2014-07-12T00:43:54.922Z,20.94
2014-07-12T00:44:59.611Z,20.93
2014-07-12T00:46:04.314Z,21.1
2014-07-12T00:47:09.019Z,20.9
2014-07-12T00:48:13.697Z,21.02
2014-07-12T00:49:18.392Z,20.77
2014-07-12T00:50:23.087Z,20.84
2014-07-12T00:51:28.063Z,20.62
2014-07-12T00:52:32.757Z,20.72
2014-07-12T00:53:37.449Z,20.86
2014-07-12T00:54:42.140Z,20.73
2014-07-12T00:55:47.128Z,20.7
2014-07-12T00:56:51.820Z,20.84
2014-07-12T00:57:56.792Z,20.76
2014-07-12T00:59:01.779Z,20.62
2014-07-12T01:00:06.469Z,20.6
2014-07-12T01:01:11.472Z,20.74
2014-07-12T01:02:16.460Z,20.98
2014-07-12T01:03:21.743Z,21.08
2014-07-12T01:04:26.448Z,20.96
2014-07-12T01:05:31.138Z,20.7
2014-07-12T01:06:35.811Z,20.7
2014-07-12T01:07:40.501Z,20.62
2014-07-12T01:08:44.487Z,20.69
2014-07-12T01:09:49.161Z,20.65
2014-07-12T01:10:53.852Z,20.74
2014-07-12T01:11:58.541Z,20.72
2014-07-12T01:13:03.230Z,20.82
2014-07-12T01:14:07.905Z,20.72
2014-07-12T01:15:12.595Z,20.64
2014-07-12T01:16:17.581Z,20.66
2014-07-12T01:17:22.271Z,20.78
2014-07-12T01:18:26.945Z,20.7
2014-07-12T01:19:31.931Z,20.61
2014-07-12T01:20:36.622Z,20.7
2014-07-12T01:21:41.592Z,20.62
2014-07-12T01:22:46.282Z,20.74
2014-07-12T01:23:50.971Z,20.8
2014-07-12T01:24:55.644Z,20.58
2014-07-12T01:26:00.334Z,20.49
2014-07-12T01:27:05.320Z,20.44
2014-07-12T01:28:10.010Z,20.43
2014-07-12T01:29:14.684Z,20.43
2014-07-12T01:30:19.671Z,20.31
2014-07-12T01:31:24.657Z,20.33
2014-07-12T01:32:29.347Z,20.43
2014-07-12T01:33:34.035Z,20.49
2014-07-12T01:34:39.318Z,20.58
2014-07-12T01:35:44.008Z,20.64
2014-07-12T01:36:48.979Z,20.42
2014-07-12T01:37:53.965Z,20.44
2014-07-12T01:38:58.656Z,20.37
2014-07-12T01:40:03.328Z,20.32
2014-07-12T01:41:08.316Z,20.17
2014-07-12T01:42:13.005Z,20.16
2014-07-12T01:43:17.695Z,20.14
2014-07-12T01:44:22.681Z,20.06
2014-07-12T01:45:27.355Z,20.07
2014-07-12T01:46:32.341Z,20.19
2014-07-12T01:47:37.033Z,20.25
2014-07-12T01:48:41.707Z,19.96
2014-07-12T01:49:46.692Z,20
2014-07-12T01:50:51.383Z,19.94
2014-07-12T01:51:56.057Z,19.68
2014-07-12T01:53:00.746Z,19.97
2014-07-12T01:54:05.420Z,19.98
2014-07-12T01:55:10.109Z,20.08
2014-07-12T01:56:14.799Z,20.12
2014-07-12T01:57:19.488Z,20.06
2014-07-12T01:58:24.458Z,20.14
2014-07-12T01:59:29.149Z,20.08
2014-07-12T02:00:33.837Z,20.06
2014-07-12T02:01:38.512Z,20.12
2014-07-12T02:02:43.497Z,20.4
2014-07-12T02:03:48.187Z,20.57
2014-07-12T02:04:52.877Z,20.74
2014-07-12T02:05:57.566Z,20.68
2014-07-12T02:07:01.568Z,20.6
2014-07-12T02:08:06.257Z,20.35
2014-07-12T02:09:11.245Z,20.46
2014-07-12T02:10:15.933Z,20.39
2014-07-12T02:11:20.608Z,20.37
2014-07-12T02:12:25.298Z,20.36
2014-07-12T02:13:29.986Z,20.38
2014-07-12T02:14:34.973Z,20.64
2014-07-12T02:15:39.663Z,20.28
2014-07-12T02:16:44.634Z,20.48
2014-07-12T02:17:49.322Z,20.62
2014-07-12T02:18:54.012Z,20.68
2014-07-12T02:19:58.983Z,20.74
2014-07-12T02:21:03.971Z,20.42
2014-07-12T02:22:08.661Z,20.51
2014-07-12T02:23:13.335Z,20.32
2014-07-12T02:24:18.322Z,20.04
2014-07-12T02:25:23.308Z,19.88
2014-07-12T02:26:27.982Z,20.09
2014-07-12T02:27:32.671Z,20.23
2014-07-12T02:28:37.360Z,20.13
2014-07-12T02:29:42.050Z,20.21
2014-07-12T02:30:47.021Z,20.26
2014-07-12T02:31:51.710Z,20.3
2014-07-12T02:32:56.681Z,20.19
2014-07-12T02:34:01.370Z,20.16
2014-07-12T02:35:06.356Z,20
2014-07-12T02:36:11.344Z,19.98
2014-07-12T02:37:16.033Z,20.05
2014-07-12T02:38:20.707Z,20.04
2014-07-12T02:39:25.397Z,20.09
2014-07-12T02:40:30.086Z,20.08
2014-07-12T02:41:35.072Z,20.05
2014-07-12T02:42:39.762Z,20.2
2014-07-12T02:43:44.749Z,20.05
2014-07-12T02:44:49.735Z,19.89
2014-07-12T02:45:54.425Z,19.75
2014-07-12T02:46:59.099Z,19.8
2014-07-12T02:48:03.789Z,19.93
2014-07-12T02:49:08.478Z,20.14
2014-07-12T02:50:13.151Z,20.15
2014-07-12T02:51:17.841Z,20.33
2014-07-12T02:52:22.531Z,20.26
2014-07-12T02:53:27.205Z,20.08
2014-07-12T02:54:31.894Z,19.96
2014-07-12T02:55:36.583Z,19.83
2014-07-12T02:56:41.569Z,20.04
2014-07-12T02:57:45.571Z,20.4
2014-07-12T02:58:50.246Z,20.58
2014-07-12T02:59:55.232Z,20.46
2014-07-12T03:00:59.922Z,20.2
2014-07-12T03:02:04.596Z,20.1
2014-07-12T03:03:09.285Z,20.06
2014-07-12T03:04:13.960Z,19.98
2014-07-12T03:05:18.651Z,19.87
2014-07-12T03:06:23.340Z,20.11
2014-07-12T03:07:28.013Z,20.2
2014-07-12T03:08:32.704Z,20.41
2014-07-12T03:09:37.393Z,20.45
2014-07-12T03:10:42.067Z,20.56
2014-07-12T03:11:46.756Z,20.66
2014-07-12T03:12:51.446Z,20.54
2014-07-12T03:13:56.134Z,20.5
2014-07-12T03:15:00.809Z,20.43
2014-07-12T03:16:05.499Z,20.58
2014-07-12T03:17:10.188Z,20.6
2014-07-12T03:18:14.878Z,20.57
2014-07-12T03:19:19.567Z,20.47
2014-07-12T03:20:24.241Z,20.65
2014-07-12T03:21:29.228Z,20.5
2014-07-12T03:22:33.917Z,20.6
2014-07-12T03:23:38.590Z,20.67
2014-07-12T03:24:43.280Z,20.64
2014-07-12T03:25:47.970Z,20.87
2014-07-12T03:26:52.660Z,20.67
2014-07-12T03:27:57.333Z,20.52
2014-07-12T03:29:02.023Z,20.45
2014-07-12T03:30:06.697Z,20.62
2014-07-12T03:31:11.386Z,20.67
2014-07-12T03:32:16.357Z,20.8
2014-07-12T03:33:21.343Z,20.66
2014-07-12T03:34:26.033Z,20.68
2014-07-12T03:35:30.722Z,20.72
2014-07-12T03:36:35.693Z,20.7
2014-07-12T03:37:40.383Z,20.86
2014-07-12T03:38:45.369Z,20.67
2014-07-12T03:39:50.043Z,20.54
2014-07-12T03:40:54.732Z,20.52
2014-07-12T03:41:59.424Z,20.37
2014-07-12T03:43:04.395Z,20.38
2014-07-12T03:44:09.084Z,20.4
2014-07-12T03:45:14.367Z,20.36
2014-07-12T03:46:19.057Z,20.57
2014-07-12T03:47:23.746Z,20.68
2014-07-12T03:48:28.421Z,20.74
2014-07-12T03:49:33.111Z,20.58
2014-07-12T03:50:37.799Z,20.68
2014-07-12T03:51:42.474Z,20.78
2014-07-12T03:52:47.164Z,20.65
2014-07-12T03:53:51.165Z,20.68
2014-07-12T03:54:56.136Z,20.82
2014-07-12T03:56:00.826Z,20.76
2014-07-12T03:57:05.828Z,20.78
2014-07-12T03:58:10.502Z,20.73
2014-07-12T03:59:15.191Z,20.67
2014-07-12T04:00:20.178Z,20.63
2014-07-12T04:01:25.148Z,20.5
2014-07-12T04:02:29.838Z,20.68
2014-07-12T04:03:34.824Z,20.78
2014-07-12T04:04:39.498Z,20.85
2014-07-12T04:05:44.203Z,21.02
2014-07-12T04:06:48.877Z,21.08
2014-07-12T04:07:53.568Z,20.89
2014-07-12T04:08:58.256Z,20.95
2014-07-12T04:10:03.242Z,20.83
2014-07-12T04:11:07.932Z,20.74
2014-07-12T04:12:12.621Z,20.54
2014-07-12T04:13:17.312Z,20.53
2014-07-12T04:14:21.985Z,20.79
2014-07-12T04:15:26.987Z,20.8
2014-07-12T04:16:31.286Z,20.73
2014-07-12T04:17:35.961Z,20.66
2014-07-12T04:18:40.649Z,20.65
2014-07-12T04:19:45.339Z,20.84
2014-07-12T04:20:50.623Z,20.79
2014-07-12T04:21:55.296Z,20.62
2014-07-12T04:22:59.986Z,20.68
2014-07-12T04:24:04.973Z,20.82
2014-07-12T04:25:09.645Z,20.89
2014-07-12T04:26:14.633Z,20.66
2014-07-12T04:27:19.322Z,20.83
2014-07-12T04:28:23.995Z,20.73
2014-07-12T04:29:28.686Z,20.78
2014-07-12T04:30:33.671Z,20.66
2014-07-12T04:31:38.642Z,20.72
2014-07-12T04:32:43.332Z,20.78
2014-07-12T04:33:48.023Z,20.66
2014-07-12T04:34:53.009Z,20.56
2014-07-12T04:35:57.684Z,20.66
2014-07-12T04:37:02.374Z,20.65
2014-07-12T04:38:07.062Z,20.78
2014-07-12T04:39:11.736Z,20.77
2014-07-12T04:40:16.739Z,20.78
2014-07-12T04:41:21.427Z,20.69
2014-07-12T04:42:26.101Z,20.74
2014-07-12T04:43:30.791Z,20.84
2014-07-12T04:44:35.480Z,20.89
2014-07-12T04:45:40.468Z,20.76
2014-07-12T04:46:45.438Z,20.72
2014-07-12T04:47:50.128Z,20.76
2014-07-12T04:48:54.817Z,20.82
2014-07-12T04:49:59.538Z,20.81
2014-07-12T04:51:04.228Z,20.88
2014-07-12T04:52:08.917Z,20.81
2014-07-12T04:53:13.592Z,20.69
2014-07-12T04:54:18.281Z,20.72
2014-07-12T04:55:22.971Z,20.68
2014-07-12T04:56:27.660Z,20.63
2014-07-12T04:57:32.631Z,20.68
2014-07-12T04:58:37.617Z,20.75
2014-07-12T04:59:42.306Z,20.8
2014-07-12T05:00:46.980Z,20.7
2014-07-12T05:01:51.670Z,20.58
2014-07-12T05:02:56.359Z,20.7
2014-07-12T05:04:01.033Z,20.68
2014-07-12T05:05:06.019Z,20.71
2014-07-12T05:06:10.709Z,20.6
2014-07-12T05:07:15.695Z,20.82
2014-07-12T05:08:20.666Z,20.74
2014-07-12T05:09:25.355Z,20.88
2014-07-12T05:10:30.640Z,20.75
2014-07-12T05:11:35.313Z,20.66
2014-07-12T05:12:40.002Z,20.62
2014-07-12T05:13:44.692Z,20.62
2014-07-12T05:14:49.383Z,20.79
2014-07-12T05:15:54.073Z,20.62
2014-07-12T05:16:58.746Z,20.7
2014-07-12T05:18:03.733Z,20.9
2014-07-12T05:19:08.423Z,21.07
2014-07-12T05:20:13.097Z,20.92
2014-07-12T05:21:17.786Z,20.9
2014-07-12T05:22:22.476Z,20.92
2014-07-12T05:23:27.463Z,21.16
2014-07-12T05:24:32.135Z,21.06
2014-07-12T05:25:37.122Z,20.98
2014-07-12T05:26:42.124Z,21.02
2014-07-12T05:27:46.799Z,20.88
2014-07-12T05:28:51.487Z,20.66
2014-07-12T05:29:56.178Z,20.72
2014-07-12T05:31:00.866Z,20.82
2014-07-12T05:32:05.853Z,20.83
2014-07-12T05:33:10.543Z,20.95
2014-07-12T05:34:15.811Z,20.96
2014-07-12T05:35:20.796Z,20.83
2014-07-12T05:36:25.783Z,20.78
2014-07-12T05:37:30.753Z,20.85
2014-07-12T05:38:35.741Z,20.8
2014-07-12T05:39:40.429Z,20.67
2014-07-12T05:40:45.104Z,20.67
2014-07-12T05:41:50.089Z,20.73
2014-07-12T05:42:54.780Z,20.67
2014-07-12T05:43:59.765Z,20.64
2014-07-12T05:45:04.458Z,20.78
2014-07-12T05:46:09.131Z,20.86
2014-07-12T05:47:13.820Z,20.85
2014-07-12T05:48:18.807Z,20.99
2014-07-12T05:49:23.496Z,20.98
2014-07-12T05:50:27.499Z,20.96
2014-07-12T05:51:32.172Z,20.93
2014-07-12T05:52:36.878Z,20.9
2014-07-12T05:53:41.551Z,20.88
2014-07-12T05:54:46.240Z,21.03
2014-07-12T05:55:51.227Z,21
2014-07-12T05:56:55.901Z,20.98
2014-07-12T05:58:00.591Z,20.9
2014-07-12T05:59:05.281Z,21.13
2014-07-12T06:00:10.266Z,21.1
2014-07-12T06:01:14.955Z,21.14
2014-07-12T06:02:19.943Z,20.92
2014-07-12T06:03:24.928Z,20.81
2014-07-12T06:04:29.602Z,20.85
2014-07-12T06:05:34.292Z,20.98
2014-07-12T06:06:39.279Z,20.97
2014-07-12T06:07:43.968Z,20.93
2014-07-12T06:08:48.955Z,20.88
2014-07-12T06:09:53.629Z,21.01
2014-07-12T06:10:58.317Z,21.12
2014-07-12T06:12:03.008Z,21.18
2014-07-12T06:13:07.994Z,21.12
2014-07-12T06:14:12.668Z,21.18
2014-07-12T06:15:17.357Z,21.2
2014-07-12T06:16:22.344Z,21.11
2014-07-12T06:17:27.018Z,21.16
2014-07-12T06:18:31.707Z,21.09
2014-07-12T06:19:36.397Z,21.15
2014-07-12T06:20:41.680Z,21.22
2014-07-12T06:21:46.651Z,21.13
2014-07-12T06:22:51.342Z,21.06
2014-07-12T06:23:56.032Z,21.14
2014-07-12T06:25:00.721Z,21.06
2014-07-12T06:26:05.692Z,21.05
2014-07-12T06:27:10.381Z,21.06
2014-07-12T06:28:15.071Z,21.14
2014-07-12T06:29:20.057Z,21.19
2014-07-12T06:30:25.028Z,21.07
2014-07-12T06:31:29.718Z,21.05
2014-07-12T06:32:35.001Z,21.19
2014-07-12T06:33:39.987Z,21.02
2014-07-12T06:34:44.677Z,21.12
2014-07-12T06:35:49.365Z,21.08
2014-07-12T06:36:54.056Z,21.03
2014-07-12T06:37:58.745Z,21.1
2014-07-12T06:39:03.419Z,21.15
2014-07-12T06:40:08.109Z,21.04
2014-07-12T06:41:12.814Z,21.06
2014-07-12T06:42:17.503Z,21.06
2014-07-12T06:43:22.193Z,21.1
2014-07-12T06:44:27.476Z,21.08
2014-07-12T06:45:32.165Z,21.18
2014-07-12T06:46:36.855Z,21.39
2014-07-12T06:47:41.529Z,21.32
2014-07-12T06:48:46.218Z,21.29
2014-07-12T06:49:50.908Z,21.32
2014-07-12T06:50:55.582Z,21.33
2014-07-12T06:52:00.866Z,21.33
2014-07-12T06:53:05.554Z,21.36
2014-07-12T06:54:10.229Z,21.22
2014-07-12T06:55:14.918Z,21.2
2014-07-12T06:56:19.608Z,21.26
2014-07-12T06:57:24.594Z,21.21
2014-07-12T06:58:29.284Z,21.16
2014-07-12T06:59:33.271Z,21.25
2014-07-12T07:00:38.257Z,21.22
2014-07-12T07:01:43.244Z,21.28
2014-07-12T07:02:47.918Z,21.28
2014-07-12T07:03:52.906Z,21.4
2014-07-12T07:04:57.594Z,21.24
2014-07-12T07:06:02.268Z,21.29
2014-07-12T07:07:06.958Z,21.31
2014-07-12T07:08:11.944Z,21.3
2014-07-12T07:09:16.931Z,21.46
2014-07-12T07:10:21.605Z,21.58
2014-07-12T07:11:26.591Z,21.51
2014-07-12T07:12:31.578Z,21.77
2014-07-12T07:13:36.564Z,21.82
2014-07-12T07:14:41.551Z,21.86
2014-07-12T07:15:46.240Z,21.94
2014-07-12T07:16:50.930Z,21.78
2014-07-12T07:17:55.900Z,21.82
2014-07-12T07:19:00.887Z,21.79
2014-07-12T07:20:05.873Z,21.75
2014-07-12T07:21:10.563Z,21.84
2014-07-12T07:22:15.236Z,21.65
2014-07-12T07:23:19.927Z,21.82
2014-07-12T07:24:24.615Z,21.85
2014-07-12T07:25:29.306Z,21.78
2014-07-12T07:26:33.980Z,21.75
2014-07-12T07:27:38.966Z,21.72
2014-07-12T07:28:43.656Z,21.72
2014-07-12T07:29:48.344Z,21.44
2014-07-12T07:30:53.035Z,21.36
2014-07-12T07:31:57.709Z,21.46
2014-07-12T07:33:02.398Z,21.34
2014-07-12T07:34:07.088Z,21.46
2014-07-12T07:35:11.761Z,21.51
2014-07-12T07:36:16.748Z,21.63
2014-07-12T07:37:21.437Z,21.44
2014-07-12T07:38:26.142Z,21.66
2014-07-12T07:39:31.113Z,21.58
2014-07-12T07:40:35.803Z,21.66
2014-07-12T07:41:40.789Z,21.52
2014-07-12T07:42:45.479Z,21.67
2014-07-12T07:43:50.152Z,21.66
2014-07-12T07:44:54.842Z,21.62
2014-07-12T07:45:59.531Z,21.71
2014-07-12T07:47:04.221Z,21.45
2014-07-12T07:48:09.192Z,21.31
2014-07-12T07:49:13.897Z,21.26
2014-07-12T07:50:18.868Z,21.43
2014-07-12T07:51:23.557Z,21.48
2014-07-12T07:52:28.249Z,21.91
2014-07-12T07:53:33.235Z,22.21
2014-07-12T07:54:37.924Z,22.38
2014-07-12T07:55:42.614Z,22.48
2014-07-12T07:56:47.303Z,22.48
2014-07-12T07:57:51.993Z,22.53
2014-07-12T07:58:56.682Z,22.52
2014-07-12T08:00:00.669Z,22.59
2014-07-12T08:01:05.358Z,22.56
2014-07-12T08:02:10.048Z,22.62
2014-07-12T08:03:14.722Z,22.6
2014-07-12T08:04:19.411Z,22.52
2014-07-12T08:05:24.399Z,22.48
2014-07-12T08:06:29.087Z,22.59
2014-07-12T08:07:34.073Z,22.61
2014-07-12T08:08:38.763Z,22.49
2014-07-12T08:09:43.452Z,22.37
2014-07-12T08:10:48.439Z,22.38
2014-07-12T08:11:53.128Z,22.44
2014-07-12T08:12:57.802Z,22.44
2014-07-12T08:14:02.493Z,22.46
2014-07-12T08:15:07.181Z,22.58
2014-07-12T08:16:11.871Z,22.5
2014-07-12T08:17:16.545Z,22.37
2014-07-12T08:18:21.234Z,22.42
2014-07-12T08:19:26.220Z,22.4
2014-07-12T08:20:31.207Z,22.16
2014-07-12T08:21:36.193Z,22.37
2014-07-12T08:22:40.885Z,22.44
2014-07-12T08:23:45.559Z,22.58
2014-07-12T08:24:50.248Z,22.44
2014-07-12T08:25:54.938Z,22.4
2014-07-12T08:26:58.940Z,22.38
2014-07-12T08:28:02.942Z,22.64
2014-07-12T08:29:08.225Z,22.6
2014-07-12T08:30:12.914Z,22.62
2014-07-12T08:31:17.604Z,22.79
2014-07-12T08:32:22.591Z,22.78
2014-07-12T08:33:27.858Z,22.5
2014-07-12T08:34:32.548Z,22.82
2014-07-12T08:35:37.237Z,22.88
2014-07-12T08:36:41.911Z,23.02
2014-07-12T08:37:46.897Z,23.02
2014-07-12T08:38:51.883Z,23.18
2014-07-12T08:39:56.574Z,23.38
2014-07-12T08:41:01.263Z,23.58
2014-07-12T08:42:05.937Z,23.63
2014-07-12T08:43:10.627Z,23.5
2014-07-12T08:44:15.316Z,23.62
2014-07-12T08:45:20.600Z,23.57
2014-07-12T08:46:25.289Z,23.49
2014-07-12T08:47:29.963Z,23.36
2014-07-12T08:48:34.652Z,23.31
2014-07-12T08:49:39.342Z,22.98
2014-07-12T08:50:44.328Z,23.14
2014-07-12T08:51:49.018Z,23.16
2014-07-12T08:52:53.692Z,23.13
2014-07-12T08:53:58.381Z,23.08
2014-07-12T08:55:03.071Z,22.93
2014-07-12T08:56:07.760Z,22.91
2014-07-12T08:57:12.747Z,23.02
2014-07-12T08:58:17.436Z,23
2014-07-12T08:59:22.422Z,23
2014-07-12T09:00:27.096Z,22.98
2014-07-12T09:01:32.083Z,23.07
2014-07-12T09:02:36.100Z,23.12
2014-07-12T09:03:41.087Z,23.26
2014-07-12T09:04:46.073Z,23.45
2014-07-12T09:05:50.763Z,23.62
2014-07-12T09:06:55.453Z,23.82
2014-07-12T09:08:00.142Z,23.9
2014-07-12T09:09:04.145Z,23.93
2014-07-12T09:10:09.116Z,24.12
2014-07-12T09:11:13.806Z,24.17
2014-07-12T09:12:18.792Z,24.28
2014-07-12T09:13:23.482Z,24.43
2014-07-12T09:14:28.171Z,24.47
2014-07-12T09:15:32.845Z,24.7
2014-07-12T09:16:37.535Z,24.69
2014-07-12T09:17:42.224Z,24.61
2014-07-12T09:18:46.914Z,24.2
2014-07-12T09:19:51.900Z,24.31
2014-07-12T09:20:56.871Z,24.18
2014-07-12T09:22:01.560Z,24.25
2014-07-12T09:23:06.250Z,24.44
2014-07-12T09:24:11.236Z,24.41
2014-07-12T09:25:15.910Z,24.36
2014-07-12T09:26:20.599Z,24.36
2014-07-12T09:27:25.883Z,24.74
2014-07-12T09:28:29.885Z,24.67
2014-07-12T09:29:34.871Z,24.79
2014-07-12T09:30:39.561Z,24.81
2014-07-12T09:31:44.563Z,24.93
2014-07-12T09:32:49.236Z,24.74
2014-07-12T09:33:54.238Z,24.78
2014-07-12T09:34:59.225Z,24.62
2014-07-12T09:36:04.211Z,24.74
2014-07-12T09:37:08.901Z,24.8
2014-07-12T09:38:13.591Z,24.79
2014-07-12T09:39:18.280Z,24.78
2014-07-12T09:40:22.971Z,24.79
2014-07-12T09:41:27.973Z,24.49
2014-07-12T09:42:32.663Z,24.28
2014-07-12T09:43:37.353Z,24.38
2014-07-12T09:44:42.379Z,24.32
2014-07-12T09:45:47.109Z,24.48
2014-07-12T09:46:51.839Z,24.41
2014-07-12T09:47:56.867Z,24.16
2014-07-12T09:49:01.192Z,24.13
2014-07-12T09:50:06.194Z,24.16
2014-07-12T09:51:10.897Z,24.03
2014-07-12T09:52:15.602Z,23.99
2014-07-12T09:53:19.622Z,23.9
2014-07-12T09:54:24.300Z,24.16
2014-07-12T09:55:29.294Z,24.28
2014-07-12T09:56:33.987Z,24.31
2014-07-12T09:57:38.980Z,24.41
2014-07-12T09:58:43.971Z,24.48
2014-07-12T09:59:48.663Z,24.36
2014-07-12T10:00:53.651Z,24.66
2014-07-12T10:01:58.327Z,24.69
2014-07-12T10:03:03.315Z,24.96
2014-07-12T10:04:08.303Z,25.1
2014-07-12T10:05:12.992Z,25.16
2014-07-12T10:06:17.684Z,25.24
2014-07-12T10:07:22.373Z,25.33
2014-07-12T10:08:27.063Z,25.6
2014-07-12T10:09:31.753Z,25.74
2014-07-12T10:10:36.443Z,25.29
2014-07-12T10:11:41.135Z,25.33
2014-07-12T10:12:45.825Z,25.23
2014-07-12T10:13:50.811Z,25.04
2014-07-12T10:14:55.500Z,24.89
2014-07-12T10:16:00.190Z,24.84
2014-07-12T10:17:05.177Z,24.82
2014-07-12T10:18:09.867Z,24.42
2014-07-12T10:19:14.852Z,24.34
2014-07-12T10:20:19.542Z,24.28
2014-07-12T10:21:24.528Z,24.26
2014-07-12T10:22:29.218Z,24.34
2014-07-12T10:23:33.891Z,24.14
2014-07-12T10:24:39.175Z,24.13
2014-07-12T10:25:44.161Z,24.14
2014-07-12T10:26:48.851Z,24.25
2014-07-12T10:27:53.540Z,24.28
2014-07-12T10:28:58.231Z,24.18
2014-07-12T10:30:03.217Z,24.17
2014-07-12T10:31:07.906Z,23.87
2014-07-12T10:32:12.876Z,24.02
2014-07-12T10:33:17.566Z,24.13
2014-07-12T10:34:22.256Z,24.1
2014-07-12T10:35:26.945Z,24.28
2014-07-12T10:36:31.931Z,24.5
2014-07-12T10:37:36.606Z,24.67
2014-07-12T10:38:40.607Z,24.68
2014-07-12T10:39:45.890Z,24.95
2014-07-12T10:40:50.597Z,25.16
2014-07-12T10:41:55.287Z,25.46
2014-07-12T10:42:59.976Z,25.22
2014-07-12T10:44:04.667Z,25.35
2014-07-12T10:45:09.355Z,25.41
2014-07-12T10:46:14.045Z,25.69
2014-07-12T10:47:18.735Z,25.77
2014-07-12T10:48:23.424Z,25.97
2014-07-12T10:49:28.113Z,25.76
2014-07-12T10:50:32.803Z,25.86
2014-07-12T10:51:37.492Z,25.94
2014-07-12T10:52:42.198Z,26.02
2014-07-12T10:53:46.887Z,26.17
2014-07-12T10:54:51.576Z,26.14
2014-07-12T10:55:56.250Z,25.94
2014-07-12T10:57:00.941Z,26
2014-07-12T10:58:05.629Z,25.78
2014-07-12T10:59:10.303Z,25.74
2014-07-12T11:00:15.290Z,25.61
2014-07-12T11:01:19.979Z,25.45
2014-07-12T11:02:24.670Z,25.18
2014-07-12T11:03:29.358Z,25.15
2014-07-12T11:04:34.344Z,25.1
2014-07-12T11:05:39.331Z,25.08
2014-07-12T11:06:44.317Z,25.44
2014-07-12T11:07:49.009Z,25.27
2014-07-12T11:08:53.011Z,25.16
2014-07-12T11:09:57.700Z,25.3
2014-07-12T11:11:02.390Z,25.43
2014-07-12T11:12:07.079Z,25.26
2014-07-12T11:13:11.769Z,25.17
2014-07-12T11:14:16.474Z,25.2
2014-07-12T11:15:21.163Z,25.42
2014-07-12T11:16:26.447Z,25.7
2014-07-12T11:17:31.136Z,25.66
2014-07-12T11:18:35.826Z,25.5
2014-07-12T11:19:40.812Z,25.79
2014-07-12T11:20:45.501Z,25.7
2014-07-12T11:21:50.191Z,25.76
2014-07-12T11:22:55.194Z,25.81
2014-07-12T11:23:59.882Z,25.79
2014-07-12T11:25:04.870Z,25.53
2014-07-12T11:26:09.544Z,25.4
2014-07-12T11:27:14.233Z,25.45
2014-07-12T11:28:19.515Z,25.31
2014-07-12T11:29:24.205Z,25.16
2014-07-12T11:30:28.894Z,25.01
2014-07-12T11:31:33.881Z,24.95
2014-07-12T11:32:38.867Z,24.69
2014-07-12T11:33:43.557Z,24.51
2014-07-12T11:34:48.543Z,24.16
2014-07-12T11:35:53.233Z,24.09
2014-07-12T11:36:57.923Z,23.93
2014-07-12T11:38:03.206Z,24.12
2014-07-12T11:39:07.895Z,24.2
2014-07-12T11:40:12.569Z,24.31
2014-07-12T11:41:17.556Z,24.08
2014-07-12T11:42:22.246Z,23.83
2014-07-12T11:43:26.934Z,23.72
2014-07-12T11:44:31.627Z,23.77
2014-07-12T11:45:36.315Z,24.17
2014-07-12T11:46:41.006Z,24.15
2014-07-12T11:47:45.992Z,24.04
2014-07-12T11:48:50.977Z,24.06
2014-07-12T11:49:55.651Z,24.32
2014-07-12T11:51:00.639Z,24.52
2014-07-12T11:52:05.343Z,24.74
2014-07-12T11:53:10.032Z,24.7
2014-07-12T11:54:14.035Z,24.6
2014-07-12T11:55:18.725Z,24.36
2014-07-12T11:56:23.429Z,24.36
2014-07-12T11:57:28.416Z,24.19
2014-07-12T11:58:33.403Z,24.4
2014-07-12T11:59:38.388Z,24.31
2014-07-12T12:00:43.077Z,24.21
2014-07-12T12:01:47.767Z,24.07
2014-07-12T12:02:52.456Z,24.12
2014-07-12T12:03:57.147Z,23.91
2014-07-12T12:05:01.835Z,23.88
2014-07-12T12:06:06.807Z,23.77
2014-07-12T12:07:11.497Z,23.72
2014-07-12T12:08:16.780Z,23.66
2014-07-12T12:09:21.766Z,23.56
2014-07-12T12:10:26.456Z,23.42
2014-07-12T12:11:31.145Z,23.46
2014-07-12T12:12:35.835Z,23.48
2014-07-12T12:13:40.821Z,23.73
2014-07-12T12:14:45.511Z,23.68
2014-07-12T12:15:49.513Z,23.68
2014-07-12T12:16:54.218Z,23.73
2014-07-12T12:17:58.909Z,23.68
2014-07-12T12:19:03.599Z,23.78
2014-07-12T12:20:08.585Z,23.61
2014-07-12T12:21:13.275Z,23.51
2014-07-12T12:22:18.574Z,23.6
2014-07-12T12:23:23.560Z,23.4
2014-07-12T12:24:28.249Z,23.38
2014-07-12T12:25:32.938Z,23.24
2014-07-12T12:26:37.925Z,23.42
2014-07-12T12:27:42.911Z,23.33
2014-07-12T12:28:47.586Z,23.13
2014-07-12T12:29:52.571Z,23.04
2014-07-12T12:30:57.261Z,23.17
2014-07-12T12:32:01.981Z,22.68
2014-07-12T12:33:06.672Z,22.86
2014-07-12T12:34:11.641Z,22.96
2014-07-12T12:35:16.332Z,23.2
2014-07-12T12:36:21.021Z,23.29
2014-07-12T12:37:26.008Z,23.28
2014-07-12T12:38:30.994Z,23.28
2014-07-12T12:39:35.981Z,23.25
2014-07-12T12:40:41.264Z,23.3
2014-07-12T12:41:45.953Z,23.33
2014-07-12T12:42:50.924Z,23.27
2014-07-12T12:43:55.614Z,23.4
2014-07-12T12:45:00.303Z,23.19
2014-07-12T12:46:05.289Z,23.2
2014-07-12T12:47:10.575Z,23.23
2014-07-12T12:48:15.561Z,23.26
2014-07-12T12:49:20.546Z,23.47
2014-07-12T12:50:25.237Z,23.47
2014-07-12T12:51:29.926Z,23.54
2014-07-12T12:52:35.194Z,23.58
2014-07-12T12:53:39.883Z,23.48
2014-07-12T12:54:44.573Z,23.42
2014-07-12T12:55:49.263Z,23.41
2014-07-12T12:56:54.233Z,23.67
2014-07-12T12:57:58.923Z,23.78
2014-07-12T12:59:03.612Z,23.83
2014-07-12T13:00:08.599Z,23.78
2014-07-12T13:01:13.601Z,23.38
2014-07-12T13:02:18.275Z,23.59
2014-07-12T13:03:22.980Z,23.7
2014-07-12T13:04:27.669Z,23.55
2014-07-12T13:05:31.671Z,23.46
2014-07-12T13:06:36.658Z,23.68
2014-07-12T13:07:41.644Z,23.66
2014-07-12T13:08:46.647Z,23.64
2014-07-12T13:09:51.335Z,23.78
2014-07-12T13:10:56.009Z,23.98
2014-07-12T13:12:00.700Z,23.83
2014-07-12T13:13:05.685Z,23.9
2014-07-12T13:14:10.376Z,24.1
2014-07-12T13:15:15.361Z,24.28
2014-07-12T13:16:20.333Z,24.31
2014-07-12T13:17:25.021Z,24.09
2014-07-12T13:18:29.712Z,24.31
2014-07-12T13:19:34.402Z,24.34
2014-07-12T13:20:39.123Z,24.52
2014-07-12T13:21:43.813Z,24.51
2014-07-12T13:22:48.799Z,24.52
2014-07-12T13:23:53.488Z,24.63
2014-07-12T13:24:58.178Z,24.73
2014-07-12T13:26:02.867Z,24.85
2014-07-12T13:27:07.854Z,24.88
2014-07-12T13:28:12.543Z,24.89
2014-07-12T13:29:17.530Z,24.99
2014-07-12T13:30:22.516Z,24.88
2014-07-12T13:31:27.206Z,24.8
2014-07-12T13:32:31.895Z,24.85
2014-07-12T13:33:36.585Z,24.86
2014-07-12T13:34:41.274Z,25.1
2014-07-12T13:35:46.307Z,25.17
2014-07-12T13:36:50.997Z,25.23
2014-07-12T13:37:55.999Z,25.27
2014-07-12T13:39:00.704Z,25.23
2014-07-12T13:40:05.409Z,25.14
2014-07-12T13:41:10.099Z,24.91
2014-07-12T13:42:15.382Z,24.88
2014-07-12T13:43:20.368Z,25.07
2014-07-12T13:44:25.355Z,25.19
2014-07-12T13:45:30.060Z,25.16
2014-07-12T13:46:34.751Z,25.16
2014-07-12T13:47:39.441Z,25.25
2014-07-12T13:48:44.130Z,25.11
2014-07-12T13:49:48.835Z,25.28
2014-07-12T13:50:53.540Z,25.14
2014-07-12T13:51:58.527Z,24.99
2014-07-12T13:53:03.233Z,25.16
2014-07-12T13:54:08.218Z,25.04
2014-07-12T13:55:12.940Z,24.98
2014-07-12T13:56:17.613Z,24.96
2014-07-12T13:57:22.615Z,24.81
2014-07-12T13:58:27.304Z,24.82